Time;durP1;ratioP1;P1;durP2;ratioP2;P2;SDS_P1;SDS_P2;PMS_P1;PMS_P2;Temp;Humidity;BMP_temperature;BMP_pressure;BME280_temperature;BME280_humidity;BME280_pressure;Samples;Min_cycle;Max_cycle;Signal;HPM_P1;HPM_P2
2021/08/20 00:01:06;;;;;;;10.13;6.10;;;;;;;15.52;74.61;97252.91;1686577;83;25639;-85
2021/08/20 00:03:33;;;;;;;6.75;5.15;;;;;;;15.54;74.62;97239.89;1688171;83;27480;-85
2021/08/20 00:06:00;;;;;;;9.45;6.17;;;;;;;15.55;74.65;97247.02;1690814;83;25482;-85
2021/08/20 00:08:27;;;;;;;11.53;6.75;;;;;;;15.52;74.76;97248.83;1686578;83;25458;-84
2021/08/20 00:10:54;;;;;;;10.03;5.78;;;;;;;15.48;74.82;97253.40;1697127;83;25656;-85
2021/08/20 00:13:23;;;;;;;9.25;6.75;;;;;;;15.47;74.90;97253.64;1703833;82;25519;-85
2021/08/20 00:15:53;;;;;;;6.87;5.55;;;;;;;15.45;74.98;97251.19;1692459;83;27432;-85
2021/08/20 00:18:19;;;;;;;13.03;6.20;;;;;;;15.45;74.99;97253.91;1686749;83;25521;-85
2021/08/20 00:20:46;;;;;;;8.75;5.83;;;;;;;15.44;75.09;97253.62;1681615;84;25462;-85
2021/08/20 00:23:13;;;;;;;9.33;5.65;;;;;;;15.43;75.14;97257.41;1657740;85;25639;-85
2021/08/20 00:25:43;;;;;;;8.48;5.53;;;;;;;15.42;75.16;97248.95;1696249;84;25640;-85
2021/08/20 00:28:11;;;;;;;11.03;6.55;;;;;;;15.42;75.15;97249.48;1669713;85;27571;-85
2021/08/20 00:30:37;;;;;;;9.73;6.22;;;;;;;15.42;75.14;97248.13;1684662;83;25594;-85
2021/08/20 00:33:04;;;;;;;11.15;6.03;;;;;;;15.42;75.19;97246.23;1703002;83;25572;-85
2021/08/20 00:35:37;;;;;;;8.23;5.60;;;;;;;15.43;75.20;97247.06;1689415;83;26331;-85
2021/08/20 00:38:07;;;;;;;7.23;5.53;;;;;;;15.43;75.22;97253.33;1696549;83;25449;-86
2021/08/20 00:40:32;;;;;;;7.15;5.90;;;;;;;15.43;75.28;97251.14;1682292;84;27635;-85
2021/08/20 00:42:59;;;;;;;7.75;5.65;;;;;;;15.43;75.34;97246.53;1683440;83;25624;-86
2021/08/20 00:45:26;;;;;;;6.53;5.03;;;;;;;15.44;75.33;97254.98;1677744;83;25503;-85
2021/08/20 00:47:54;;;;;;;7.65;5.22;;;;;;;15.43;75.34;97247.89;1682506;84;26153;-85
2021/08/20 00:50:21;;;;;;;10.00;5.10;;;;;;;15.42;75.36;97244.88;1678225;84;25497;-85
2021/08/20 00:52:48;;;;;;;8.93;5.40;;;;;;;15.43;75.36;97241.63;1666164;83;27368;-85
2021/08/20 00:55:19;;;;;;;7.97;5.95;;;;;;;15.43;75.39;97240.27;1675329;84;25505;-85
2021/08/20 00:57:48;;;;;;;8.95;5.50;;;;;;;15.43;75.47;97238.37;1695576;83;25146;-85
2021/08/20 01:00:16;;;;;;;8.98;5.40;;;;;;;15.42;75.44;97240.80;1692163;83;25690;-85
2021/08/20 01:02:44;;;;;;;7.50;5.70;;;;;;;15.42;75.51;97240.80;1665793;84;25433;-85
2021/08/20 01:05:12;;;;;;;7.28;5.83;;;;;;;15.42;75.55;97244.05;1686477;83;27540;-85
2021/08/20 01:07:39;;;;;;;8.93;6.00;;;;;;;15.41;75.61;97241.03;1683972;85;25500;-85
2021/08/20 01:10:07;;;;;;;9.05;6.22;;;;;;;15.39;75.64;97238.56;1683610;84;25525;-85
2021/08/20 01:12:36;;;;;;;9.03;5.78;;;;;;;15.38;75.69;97245.06;1699552;83;25653;-85
2021/08/20 01:15:05;;;;;;;9.03;5.35;;;;;;;15.38;75.76;97236.08;1683613;83;26041;-85
2021/08/20 01:17:35;;;;;;;10.25;5.72;;;;;;;15.38;75.76;97241.52;1687523;83;27373;-85
2021/08/20 01:20:11;;;;;;;13.38;6.10;;;;;;;15.38;75.78;97240.98;1702745;83;25918;-85
2021/08/20 01:22:42;;;;;;;12.23;5.90;;;;;;;15.38;75.80;97242.34;1695647;83;25518;-85
2021/08/20 01:25:13;;;;;;;8.63;5.37;;;;;;;15.38;75.84;97243.70;1684019;83;25669;-85
2021/08/20 01:27:40;;;;;;;8.23;5.28;;;;;;;15.39;75.87;97239.92;1691242;83;25924;-85
2021/08/20 01:30:09;;;;;;;8.48;5.05;;;;;;;15.40;75.87;97236.66;1684384;84;28064;-85
2021/08/20 01:32:35;;;;;;;8.00;4.85;;;;;;;15.39;75.90;97235.84;1659864;85;25469;-85
2021/08/20 01:35:06;;;;;;;8.83;5.30;;;;;;;15.37;75.96;97235.25;1653734;83;25534;-85
2021/08/20 01:37:34;;;;;;;8.65;6.00;;;;;;;15.36;76.03;97240.94;1692539;83;25762;-85
2021/08/20 01:40:05;;;;;;;9.05;4.75;;;;;;;15.36;76.02;97235.50;1682193;83;25549;-85
2021/08/20 01:42:32;;;;;;;7.30;5.25;;;;;;;15.35;76.05;97231.95;1691168;83;27351;-85
2021/08/20 01:44:59;;;;;;;8.30;4.95;;;;;;;15.35;76.11;97231.12;1679511;85;25630;-86
2021/08/20 01:47:25;;;;;;;7.47;5.00;;;;;;;15.33;76.16;97232.76;1655634;83;25466;-85
2021/08/20 01:49:52;;;;;;;6.97;4.42;;;;;;;15.35;76.15;97235.20;1683917;82;26313;-85
2021/08/20 01:52:19;;;;;;;9.53;4.75;;;;;;;15.35;76.20;97229.23;1675993;83;25441;-85
2021/08/20 01:54:45;;;;;;;7.55;4.92;;;;;;;15.34;76.22;97228.94;1678168;85;27386;-85
2021/08/20 01:57:12;;;;;;;9.83;5.50;;;;;;;15.34;76.25;97237.09;1671222;83;25522;-85
2021/08/20 01:59:39;;;;;;;6.62;4.87;;;;;;;15.35;76.25;97234.67;1673900;83;25591;-85
2021/08/20 02:02:06;;;;;;;11.40;5.05;;;;;;;15.34;76.31;97230.30;1671538;84;25685;-85
2021/08/20 02:04:35;;;;;;;9.73;5.05;;;;;;;15.23;76.29;97214.88;1671360;84;25399;-85
2021/08/20 02:07:04;;;;;;;10.50;5.30;;;;;;;15.40;76.28;97234.77;1649986;83;27685;-85
2021/08/20 02:09:31;;;;;;;8.63;5.25;;;;;;;15.42;76.28;97228.55;1674537;84;26441;-85
2021/08/20 02:11:57;;;;;;;9.53;5.47;;;;;;;15.43;76.30;97233.46;1681179;83;25534;-85
2021/08/20 02:14:24;;;;;;;7.05;4.70;;;;;;;15.38;76.32;97233.36;1674246;84;26171;-85
2021/08/20 02:16:51;;;;;;;8.35;4.97;;;;;;;15.36;76.34;97234.97;1684182;84;25190;-85
2021/08/20 02:19:17;;;;;;;10.15;5.20;;;;;;;15.35;76.43;97231.12;1673390;83;27390;-85
2021/08/20 02:21:44;;;;;;;6.80;5.08;;;;;;;15.35;76.47;97234.67;1677331;85;26095;-85
2021/08/20 02:24:13;;;;;;;10.53;5.37;;;;;;;15.34;76.47;97237.09;1674330;84;25589;-85
2021/08/20 02:26:39;;;;;;;9.40;5.40;;;;;;;15.33;76.52;97234.66;1671587;85;25654;-85
2021/08/20 02:29:06;;;;;;;8.83;5.22;;;;;;;15.31;76.59;97233.53;1671635;83;25550;-85
2021/08/20 02:31:33;;;;;;;8.75;5.50;;;;;;;15.31;76.54;97236.25;1679155;84;27331;-85
2021/08/20 02:34:00;;;;;;;8.18;5.62;;;;;;;15.31;76.59;97234.89;1673598;84;25513;-85
2021/08/20 02:36:26;;;;;;;7.92;5.62;;;;;;;15.30;76.58;97238.68;1667343;83;25528;-85
2021/08/20 02:38:53;;;;;;;8.50;5.55;;;;;;;15.30;76.60;97231.88;1665223;85;25618;-85
2021/08/20 02:41:24;;;;;;;12.53;5.20;;;;;;;15.30;76.63;97236.49;1672817;85;26164;-85
2021/08/20 02:43:56;;;;;;;6.10;4.58;;;;;;;15.16;76.65;97210.14;1676534;83;27951;-85
2021/08/20 02:46:29;;;;;;;6.95;5.20;;;;;;;15.30;76.71;97237.86;1674590;85;25573;-85
2021/08/20 02:48:55;;;;;;;7.70;5.30;;;;;;;15.29;76.73;97235.67;1665443;84;25507;-85
2021/08/20 02:51:27;;;;;;;6.83;5.35;;;;;;;15.28;76.77;97235.38;1670827;84;25864;-84
2021/08/20 02:53:53;;;;;;;7.40;5.22;;;;;;;15.27;76.88;97231.54;1671395;83;25854;-85
2021/08/20 02:56:22;;;;;;;7.00;5.28;;;;;;;15.24;76.99;97236.92;1679081;84;27949;-85
2021/08/20 02:58:49;;;;;;;11.43;5.15;;;;;;;15.25;77.01;97241.30;1644860;86;25566;-85
2021/08/20 03:01:16;;;;;;;7.80;5.55;;;;;;;15.29;77.04;97234.84;1681051;83;25481;-86
2021/08/20 03:03:43;;;;;;;9.13;4.95;;;;;;;15.30;77.00;97229.16;1670791;83;25686;-86
2021/08/20 03:06:10;;;;;;;10.75;5.53;;;;;;;15.31;76.96;97233.53;1680178;83;26208;-85
2021/08/20 03:08:38;;;;;;;8.08;5.28;;;;;;;15.30;76.99;97229.16;1672252;83;27367;-85
2021/08/20 03:11:05;;;;;;;9.18;5.25;;;;;;;15.28;77.00;97232.66;1671585;84;25475;-85
2021/08/20 03:13:32;;;;;;;8.83;5.30;;;;;;;15.29;77.07;97237.03;1665042;84;25396;-85
2021/08/20 03:15:59;;;;;;;8.33;5.10;;;;;;;15.29;77.09;97241.11;1665065;85;26069;-85
2021/08/20 03:18:27;;;;;;;8.43;4.97;;;;;;;15.29;77.08;97238.92;1677586;85;25470;-85
2021/08/20 03:20:54;;;;;;;10.05;5.20;;;;;;;15.29;77.10;97243.83;1660263;85;27365;-85
2021/08/20 03:23:21;;;;;;;7.28;4.17;;;;;;;15.29;77.25;97241.64;1669855;84;25582;-85
2021/08/20 03:25:50;;;;;;;8.83;5.25;;;;;;;15.28;77.18;97239.45;1653732;86;25549;-85
2021/08/20 03:28:16;;;;;;;7.85;4.72;;;;;;;15.30;77.24;97241.94;1669442;84;25725;-85
2021/08/20 03:30:47;;;;;;;6.70;4.83;;;;;;;15.30;77.25;97245.48;1674470;84;25672;-85
2021/08/20 03:33:13;;;;;;;5.60;4.30;;;;;;;15.31;77.32;97247.66;1617763;86;25995;-85
2021/08/20 03:35:43;;;;;;;8.23;4.97;;;;;;;15.28;77.33;97246.78;1660481;85;25513;-85
2021/08/20 03:38:10;;;;;;;6.67;4.35;;;;;;;15.24;77.38;97246.98;1679557;84;25598;-85
2021/08/20 03:40:37;;;;;;;7.40;4.90;;;;;;;15.24;77.46;97243.72;1668202;84;25745;-85
2021/08/20 03:43:04;;;;;;;6.55;5.08;;;;;;;15.23;77.49;97241.25;1665280;85;25600;-85
2021/08/20 03:45:30;;;;;;;7.45;4.75;;;;;;;15.25;77.53;97250.81;1665011;84;27160;-86
2021/08/20 03:47:57;;;;;;;7.45;4.85;;;;;;;15.12;77.53;97228.01;1656267;84;25676;-85
2021/08/20 03:50:26;;;;;;;5.85;4.83;;;;;;;15.26;77.54;97248.39;1671408;85;25509;-85
2021/08/20 03:52:52;;;;;;;5.53;4.25;;;;;;;15.28;77.53;97247.61;1667027;84;26649;-85
2021/08/20 03:55:19;;;;;;;5.22;4.72;;;;;;;15.28;77.61;97248.15;1673658;84;25543;-86
2021/08/20 03:57:56;;;;;;;9.10;4.78;;;;;;;15.23;77.57;97251.59;1668529;84;27838;-85
2021/08/20 04:00:23;;;;;;;7.92;5.60;;;;;;;15.21;77.60;97249.67;1665048;84;25492;-86
2021/08/20 04:02:50;;;;;;;6.42;4.87;;;;;;;15.23;77.62;97254.84;1677205;84;25593;-85
2021/08/20 04:05:18;;;;;;;7.70;5.00;;;;;;;15.23;77.67;97254.30;1683184;85;25715;-85
2021/08/20 04:07:46;;;;;;;6.37;5.15;;;;;;;15.22;77.73;97254.02;1683519;84;25538;-85
2021/08/20 04:10:17;;;;;;;9.18;4.85;;;;;;;15.20;77.79;97252.09;1683427;84;27364;-85
2021/08/20 04:12:42;;;;;;;6.45;4.85;;;;;;;15.21;77.76;97257.00;1682466;85;26101;-86
2021/08/20 04:15:09;;;;;;;8.18;5.08;;;;;;;15.23;77.77;97252.95;1679914;84;25546;-85
2021/08/20 04:17:38;;;;;;;6.33;4.70;;;;;;;15.26;77.73;97257.08;1646324;86;26106;-86
2021/08/20 04:20:09;;;;;;;5.95;4.90;;;;;;;15.27;77.77;97258.73;1637127;84;25599;-85
2021/08/20 04:22:36;;;;;;;8.75;4.80;;;;;;;15.28;77.79;97255.77;1646289;85;27436;-85
2021/08/20 04:25:09;;;;;;;6.92;4.37;;;;;;;15.29;77.80;97258.78;1656340;85;25777;-85
2021/08/20 04:27:36;;;;;;;7.20;4.92;;;;;;;15.31;77.80;97258.55;1682175;84;26299;-84
2021/08/20 04:30:06;;;;;;;6.67;4.67;;;;;;;15.34;77.83;97260.22;1683871;84;25721;-85
2021/08/20 04:32:33;;;;;;;6.67;4.30;;;;;;;15.34;77.79;97254.78;1683658;84;25505;-85
2021/08/20 04:35:04;;;;;;;8.25;4.67;;;;;;;15.35;77.82;97260.51;1683772;84;27353;-85
2021/08/20 04:37:33;;;;;;;7.25;4.25;;;;;;;15.35;77.85;97251.52;1683717;84;25562;-85
2021/08/20 04:40:00;;;;;;;6.33;4.45;;;;;;;15.36;77.90;97259.44;1683715;85;25830;-85
2021/08/20 04:42:27;;;;;;;6.85;4.33;;;;;;;15.37;77.94;97252.94;1683303;84;25650;-85
2021/08/20 04:44:57;;;;;;;6.35;4.55;;;;;;;15.37;77.99;97254.30;1683670;84;25540;-85
2021/08/20 04:47:22;;;;;;;5.58;4.72;;;;;;;15.35;78.03;97259.69;1683174;83;27363;-85
2021/08/20 04:49:49;;;;;;;5.60;4.78;;;;;;;15.36;77.98;97256.72;1674281;84;25527;-86
2021/08/20 04:52:15;;;;;;;6.42;4.37;;;;;;;15.39;78.01;97260.31;1648450;85;25496;-85
2021/08/20 04:54:45;;;;;;;8.90;4.83;;;;;;;15.41;78.02;97254.10;1659557;84;25731;-86
2021/08/20 04:57:14;;;;;;;8.65;5.12;;;;;;;15.43;78.02;97256.58;1640239;86;25649;-85
2021/08/20 04:59:41;;;;;;;9.83;5.67;;;;;;;15.43;78.01;97249.78;1652328;86;27328;-85
2021/08/20 05:02:09;;;;;;;17.55;9.60;;;;;;;15.46;77.98;97256.06;1660207;84;25966;-86
2021/08/20 05:04:37;;;;;;;22.85;10.28;;;;;;;15.48;78.01;97258.01;1685391;84;25495;-86
2021/08/20 05:07:05;;;;;;;17.02;8.98;;;;;;;15.49;78.00;97256.41;1698378;83;25663;-85
2021/08/20 05:09:36;;;;;;;16.57;8.98;;;;;;;15.52;78.04;97261.08;1678209;84;26093;-85
2021/08/20 05:12:06;;;;;;;16.03;8.80;;;;;;;15.54;78.01;97258.94;1696595;83;27385;-87
2021/08/20 05:14:33;;;;;;;17.12;8.00;;;;;;;15.57;77.98;97261.20;1697144;83;25608;-85
2021/08/20 05:17:00;;;;;;;17.20;8.18;;;;;;;15.58;78.04;97263.65;1699156;84;25481;-86
2021/08/20 05:19:29;;;;;;;15.72;8.85;;;;;;;15.61;78.09;97266.42;1700779;83;25991;-86
2021/08/20 05:21:56;;;;;;;12.47;7.22;;;;;;;15.64;78.05;97271.38;1700989;82;25455;-86
2021/08/20 05:24:25;;;;;;;16.40;7.35;;;;;;;15.65;77.97;97275.22;1697334;84;27343;-86
2021/08/20 05:26:51;;;;;;;15.23;7.87;;;;;;;15.69;78.00;97274.20;1700780;83;25492;-86
2021/08/20 05:29:18;;;;;;;20.37;8.93;;;;;;;15.71;77.93;97269.30;1670917;84;25480;-86
2021/08/20 05:31:47;;;;;;;15.30;7.60;;;;;;;15.74;77.90;97267.45;1701160;84;25700;-85
2021/08/20 05:34:13;;;;;;;14.25;6.85;;;;;;;15.75;77.90;97267.75;1713856;82;25568;-85
2021/08/20 05:36:40;;;;;;;10.90;5.95;;;;;;;15.76;77.89;97276.20;1704280;82;27325;-86
2021/08/20 05:39:07;;;;;;;12.95;5.33;;;;;;;15.80;77.80;97271.92;1696507;84;25569;-85
2021/08/20 05:41:34;;;;;;;7.70;5.55;;;;;;;15.82;77.82;97271.94;1700495;82;25465;-85
2021/08/20 05:44:01;;;;;;;9.68;5.50;;;;;;;15.85;77.80;97261.10;1695962;83;25755;-85
2021/08/20 05:46:34;;;;;;;9.38;5.28;;;;;;;15.88;77.77;97265.23;1700364;82;25429;-86
2021/08/20 05:49:03;;;;;;;14.40;5.75;;;;;;;15.92;77.95;97266.39;1700178;82;27874;-85
2021/08/20 05:51:28;;;;;;;8.38;5.55;;;;;;;15.92;78.03;97264.50;1681156;83;25465;-85
2021/08/20 05:53:55;;;;;;;12.05;6.25;;;;;;;15.79;77.92;97236.25;1701428;82;25576;-85
2021/08/20 05:56:21;;;;;;;12.93;7.92;;;;;;;15.97;77.86;97269.17;1700273;82;26226;-85
2021/08/20 05:58:51;;;;;;;17.50;8.58;;;;;;;15.99;77.81;97262.41;1700976;84;25472;-85
2021/08/20 06:01:18;;;;;;;13.40;7.80;;;;;;;16.03;77.74;97266.30;1700570;82;27383;-85
2021/08/20 06:03:45;;;;;;;14.65;8.20;;;;;;;16.05;77.73;97266.88;1693027;83;25226;-86
2021/08/20 06:06:19;;;;;;;15.48;8.75;;;;;;;16.09;77.72;97267.19;1686915;84;25541;-85
2021/08/20 06:08:44;;;;;;;20.82;10.05;;;;;;;16.13;77.72;97269.17;1695107;83;25776;-85
2021/08/20 06:11:10;;;;;;;15.48;8.95;;;;;;;16.17;77.62;97268.97;1676707;84;25488;-85
2021/08/20 06:13:37;;;;;;;18.60;9.38;;;;;;;16.19;77.54;97272.24;1660451;84;27947;-85
2021/08/20 06:16:04;;;;;;;14.30;8.13;;;;;;;16.26;77.52;97273.98;1677038;84;25481;-85
2021/08/20 06:18:31;;;;;;;14.75;8.58;;;;;;;16.29;77.50;97274.31;1657643;85;25469;-85
2021/08/20 06:20:58;;;;;;;13.68;7.97;;;;;;;16.34;77.48;97273.54;1676267;84;25653;-85
2021/08/20 06:23:25;;;;;;;15.23;7.53;;;;;;;16.37;77.48;97274.41;1677247;83;25594;-85
2021/08/20 06:25:55;;;;;;;9.95;5.60;;;;;;;16.41;77.51;97281.02;1676192;85;27368;-85
2021/08/20 06:28:21;;;;;;;10.58;6.03;;;;;;;16.44;77.37;97283.20;1675937;85;26128;-85
2021/08/20 06:30:51;;;;;;;12.65;5.67;;;;;;;16.33;77.25;97265.08;1676265;83;25472;-85
2021/08/20 06:33:18;;;;;;;8.98;5.45;;;;;;;16.48;77.26;97286.55;1680933;83;25726;-84
2021/08/20 06:35:49;;;;;;;10.45;5.05;;;;;;;16.53;77.21;97285.81;1657234;85;25205;-85
2021/08/20 06:38:17;;;;;;;9.23;4.97;;;;;;;16.60;77.23;97286.44;1680156;84;28882;-85
2021/08/20 06:40:44;;;;;;;8.33;5.08;;;;;;;16.67;77.17;97288.45;1676075;84;25605;-85
2021/08/20 06:43:11;;;;;;;13.30;4.90;;;;;;;16.75;77.09;97294.02;1657328;85;25557;-85
2021/08/20 06:45:38;;;;;;;10.58;5.17;;;;;;;16.81;77.15;97289.73;1676362;83;25976;-85
2021/08/20 06:48:05;;;;;;;10.80;5.22;;;;;;;16.88;77.29;97295.01;1665077;84;25561;-85
2021/08/20 06:50:33;;;;;;;7.22;4.80;;;;;;;16.92;77.03;97296.95;1680965;84;26802;-85
2021/08/20 06:53:00;;;;;;;6.42;4.83;;;;;;;16.97;76.87;97300.83;1677497;85;25545;-85
2021/08/20 06:55:33;;;;;;;9.80;4.85;;;;;;;17.01;76.87;97296.53;1657242;85;25689;-86
2021/08/20 06:58:02;;;;;;;6.30;4.90;;;;;;;17.06;76.82;97296.56;1675838;83;25667;-85
2021/08/20 07:00:29;;;;;;;7.42;4.55;;;;;;;17.11;76.61;97293.91;1675699;84;25621;-85
2021/08/20 07:02:56;;;;;;;10.38;4.83;;;;;;;17.14;76.55;97297.50;1682271;84;27342;-85
2021/08/20 07:05:22;;;;;;;6.60;4.30;;;;;;;17.20;76.49;97297.83;1701086;82;26147;-85
2021/08/20 07:07:51;;;;;;;6.45;4.58;;;;;;;17.26;76.19;97299.55;1685485;83;25238;-85
2021/08/20 07:10:18;;;;;;;10.35;5.45;;;;;;;17.32;76.19;97303.95;1700611;82;25667;-85
2021/08/20 07:12:50;;;;;;;9.75;4.72;;;;;;;17.39;76.15;97298.31;1698358;84;25497;-86
2021/08/20 07:15:17;;;;;;;8.73;4.90;;;;;;;17.44;75.96;97296.45;1696678;83;27787;-86
2021/08/20 07:17:44;;;;;;;10.70;5.62;;;;;;;17.49;75.60;97294.32;1698571;84;25503;-86
2021/08/20 07:20:17;;;;;;;8.28;4.70;;;;;;;17.55;75.27;97296.83;1694532;84;25500;-85
2021/08/20 07:22:43;;;;;;;6.95;5.10;;;;;;;17.63;75.20;97296.92;1701059;82;27503;-85
2021/08/20 07:25:14;;;;;;;4.97;3.90;;;;;;;17.74;75.31;97299.23;1700936;82;25574;-85
2021/08/20 07:27:39;;;;;;;7.90;4.95;;;;;;;17.82;75.21;97293.28;1679345;84;27084;-85
2021/08/20 07:30:08;;;;;;;4.42;3.90;;;;;;;17.91;75.34;97292.53;1666720;84;25534;-85
2021/08/20 07:32:43;;;;;;;7.33;4.58;;;;;;;18.01;74.95;97295.88;1699805;83;26085;-85
2021/08/20 07:35:08;;;;;;;5.87;4.20;;;;;;;18.10;74.81;97294.34;1670911;84;25728;-86
2021/08/20 07:37:34;;;;;;;7.67;3.92;;;;;;;18.18;74.54;97290.28;1701003;82;25645;-85
2021/08/20 07:40:05;;;;;;;7.05;3.98;;;;;;;18.25;74.35;97293.05;1698545;84;27344;-85
2021/08/20 07:42:32;;;;;;;5.58;4.28;;;;;;;18.37;74.36;97291.49;1699394;84;25607;-86
2021/08/20 07:45:01;;;;;;;5.08;4.12;;;;;;;18.49;74.43;97289.92;1696736;84;25514;-86
2021/08/20 07:47:28;;;;;;;4.85;3.95;;;;;;;18.61;74.09;97293.30;1698797;82;26275;-85
2021/08/20 07:49:55;;;;;;;7.35;4.42;;;;;;;18.72;73.97;97290.90;1706682;83;25542;-85
2021/08/20 07:52:21;;;;;;;7.37;4.20;;;;;;;18.81;73.73;97294.80;1675049;84;27834;-85
2021/08/20 07:54:50;;;;;;;5.15;3.90;;;;;;;18.91;73.38;97300.84;1699026;83;25509;-85
2021/08/20 07:57:17;;;;;;;4.70;4.00;;;;;;;19.01;72.94;97300.89;1691971;84;25293;-85
2021/08/20 07:59:46;;;;;;;6.47;4.33;;;;;;;19.09;72.54;97293.52;1698917;82;26206;-85
2021/08/20 08:02:18;;;;;;;7.75;4.22;;;;;;;19.20;72.66;97293.83;1700256;83;25491;-85
2021/08/20 08:04:45;;;;;;;6.03;4.15;;;;;;;19.16;72.32;97278.23;1708443;83;27365;-86
2021/08/20 08:07:19;;;;;;;6.80;4.42;;;;;;;19.38;72.20;97295.26;1683730;83;25569;-85
2021/08/20 08:09:43;;;;;;;7.67;4.45;;;;;;;19.48;72.21;97303.48;1660671;84;36805;-85
2021/08/20 08:12:13;;;;;;;6.05;4.25;;;;;;;19.59;72.00;97302.44;1708653;83;25697;-85
2021/08/20 08:14:42;;;;;;;5.37;4.12;;;;;;;19.69;71.61;97299.71;1686044;84;25415;-85
2021/08/20 08:17:09;;;;;;;4.83;3.98;;;;;;;19.71;71.06;97300.27;1682494;84;28127;-85
2021/08/20 08:19:36;;;;;;;4.97;3.87;;;;;;;19.81;71.12;97300.00;1682367;84;25553;-85
2021/08/20 08:22:05;;;;;;;5.40;4.00;;;;;;;19.92;70.80;97289.34;1686750;83;25596;-84
2021/08/20 08:24:38;;;;;;;4.87;4.03;;;;;;;20.00;69.98;97286.05;1665631;84;25841;-84
2021/08/20 08:27:05;;;;;;;5.62;4.00;;;;;;;20.09;70.08;97288.50;1675166;84;25581;-84
2021/08/20 08:29:34;;;;;;;4.72;3.72;;;;;;;20.16;69.61;97283.59;1636729;86;26030;-84
2021/08/20 08:32:01;;;;;;;10.03;4.00;;;;;;;20.21;69.44;97289.04;1667131;83;25471;-85
2021/08/20 08:34:28;;;;;;;4.97;3.85;;;;;;;20.36;69.31;97289.06;1672215;85;25470;-85
2021/08/20 08:36:55;;;;;;;4.70;3.50;;;;;;;20.52;69.43;97287.67;1670140;84;25666;-85
2021/08/20 08:39:21;;;;;;;4.60;3.30;;;;;;;20.67;68.69;97283.49;1657581;85;25567;-90
2021/08/20 08:41:48;;;;;;;4.05;3.52;;;;;;;20.82;68.19;97280.70;1665508;84;27394;-85
2021/08/20 08:44:15;;;;;;;4.12;3.67;;;;;;;20.95;67.95;97286.15;1664181;83;25519;-86
2021/08/20 08:46:51;;;;;;;4.60;3.62;;;;;;;21.09;67.85;97292.12;1668750;85;25518;-86
2021/08/20 08:49:22;;;;;;;5.85;3.47;;;;;;;21.20;67.07;97287.44;1679329;83;26569;-85
2021/08/20 08:51:52;;;;;;;9.30;4.08;;;;;;;21.34;66.65;97287.65;1704902;83;26008;-85
2021/08/20 08:54:19;;;;;;;6.58;3.40;;;;;;;21.34;66.65;97287.65;1686587;83;27379;-87
2021/08/20 08:56:49;;;;;;;5.55;3.55;;;;;;;21.44;65.92;97262.88;1707734;83;25525;-85
2021/08/20 08:59:19;;;;;;;3.33;3.02;;;;;;;21.44;65.92;97262.88;1687595;83;25533;-86
2021/08/20 09:01:46;;;;;;;4.20;3.40;;;;;;;21.75;65.62;97289.56;1674746;85;25928;-85
2021/08/20 09:04:23;;;;;;;3.22;2.80;;;;;;;21.82;64.95;97275.80;1630993;86;25601;-86
2021/08/20 09:06:56;;;;;;;4.80;3.00;;;;;;;22.02;64.49;97289.13;1651675;85;27428;-86
2021/08/20 09:09:25;;;;;;;5.30;3.33;;;;;;;22.10;64.45;97283.00;1660499;85;25543;-85
2021/08/20 09:11:58;;;;;;;3.45;3.12;;;;;;;22.15;63.67;97262.34;1603518;87;25477;-86
2021/08/20 09:14:35;;;;;;;5.67;2.87;;;;;;;22.28;62.88;97272.67;1628200;87;26203;-86
2021/08/20 09:17:09;;;;;;;6.08;3.00;;;;;;;22.44;63.01;97276.11;1648460;87;25684;-88
2021/08/20 09:19:34;;;;;;;3.30;2.92;;;;;;;22.59;62.56;97275.92;1607009;87;27434;-87
2021/08/20 09:22:12;;;;;;;3.50;2.90;;;;;;;22.68;62.08;97267.88;1627700;86;25547;-87
2021/08/20 09:24:46;;;;;;;5.65;3.58;;;;;;;22.86;62.08;97270.70;1685708;83;25520;-86
2021/08/20 09:27:21;;;;;;;3.75;2.92;;;;;;;23.03;61.59;97273.54;1673711;84;26112;-86
2021/08/20 09:30:06;;;;;;;3.10;2.80;;;;;;;23.20;60.91;97267.79;1680974;85;25514;-86
2021/08/20 09:32:32;;;;;;;4.20;2.80;;;;;;;23.36;60.41;97268.41;1614555;87;27916;-86
2021/08/20 09:34:59;;;;;;;3.47;2.95;;;;;;;23.68;60.10;97266.31;1619983;87;25558;-87
2021/08/20 09:37:30;;;;;;;2.52;2.20;;;;;;;24.17;60.04;97262.21;1627872;87;25824;-87
2021/08/20 09:40:04;;;;;;;4.45;2.70;;;;;;;24.52;59.39;97253.88;1621012;87;26196;-87
2021/08/20 09:42:29;;;;;;;5.00;2.90;;;;;;;24.72;59.39;97232.25;1609370;87;25585;-87
2021/08/20 09:45:20;;;;;;;5.53;3.02;;;;;;;25.18;58.35;97256.18;1632568;87;27433;-88
2021/08/20 09:47:50;;;;;;;2.90;2.60;;;;;;;25.33;57.68;97248.95;1632508;87;25549;-88
2021/08/20 09:50:25;;;;;;;3.65;2.52;;;;;;;25.53;57.10;97246.28;1630407;87;25586;-87
2021/08/20 09:52:51;;;;;;;3.33;2.90;;;;;;;25.77;56.14;97246.03;1598955;89;26237;-88
2021/08/20 09:55:39;;;;;;;4.00;2.72;;;;;;;25.98;55.97;97247.16;1615278;87;25234;-87
2021/08/20 09:58:14;;;;;;;3.70;2.70;;;;;;;26.17;55.46;97239.50;1600371;87;26028;-86
2021/08/20 10:00:43;;;;;;;2.70;2.40;;;;;;;26.39;54.69;97240.05;1614707;87;25518;-87
2021/08/20 10:03:17;;;;;;;2.80;2.60;;;;;;;26.51;54.38;97233.93;1587769;87;25486;-87
2021/08/20 10:06:01;;;;;;;3.45;3.05;;;;;;;26.67;53.86;97235.16;1628511;87;26255;-88
2021/08/20 10:08:30;;;;;;;4.03;2.60;;;;;;;26.84;53.52;97230.23;1615541;86;25504;-88
2021/08/20 10:11:07;;;;;;;3.77;2.92;;;;;;;26.98;52.29;97224.61;1677298;84;27557;-88
2021/08/20 10:13:45;;;;;;;2.52;2.33;;;;;;;27.10;51.66;97226.19;1675601;83;25601;-87
2021/08/20 10:16:16;;;;;;;3.72;2.33;;;;;;;27.27;51.06;97228.19;1692316;83;25481;-87
2021/08/20 10:18:42;;;;;;;4.25;3.20;;;;;;;27.33;50.72;97226.31;1671445;84;25766;-88
2021/08/20 10:21:11;;;;;;;2.80;2.60;;;;;;;27.41;50.11;97222.73;1675487;83;25638;-87
2021/08/20 10:23:45;;;;;;;3.45;2.85;;;;;;;27.39;49.57;97216.72;1676255;84;27337;-89
2021/08/20 10:26:13;;;;;;;4.30;3.47;;;;;;;27.22;47.99;97226.37;1642973;86;25932;-88
2021/08/20 10:28:44;;;;;;;4.90;3.30;;;;;;;27.17;49.02;97232.88;1673866;84;25498;-88
2021/08/20 10:31:14;;;;;;;4.07;2.93;;;;;;;27.26;49.29;97220.45;1682525;85;25660;-88
2021/08/20 10:33:46;;;;;;;3.50;2.87;;;;;;;27.31;48.13;97218.89;1680956;84;25458;-88
2021/08/20 10:36:13;;;;;;;4.50;3.25;;;;;;;27.35;46.85;97212.14;1680472;84;27375;-88
2021/08/20 10:38:49;;;;;;;3.62;3.33;;;;;;;27.38;47.26;97206.77;1661804;84;25246;-87
2021/08/20 10:41:22;;;;;;;5.30;3.22;;;;;;;27.47;47.39;97208.97;1631275;85;25460;-89
2021/08/20 10:44:07;;;;;;;4.92;3.90;;;;;;;27.48;47.04;97192.59;1678370;85;25569;-90
2021/08/20 10:49:19;;;;;;;5.72;3.80;;;;;;;27.56;46.77;97198.72;1657962;84;27363;-89
2021/08/20 10:52:03;;;;;;;4.15;3.15;;;;;;;27.56;46.45;97197.34;1665318;85;25949;-89
2021/08/20 10:54:40;;;;;;;3.47;2.85;;;;;;;27.69;46.20;97198.31;1685426;84;25328;-89
2021/08/20 10:57:39;;;;;;;4.45;3.22;;;;;;;27.81;45.64;97199.05;1675470;84;25712;-91
2021/08/20 11:00:46;;;;;;;3.27;2.98;;;;;;;27.81;45.12;97200.43;1688008;83;25521;-90
2021/08/20 11:03:11;;;;;;;4.53;3.55;;;;;;;27.86;44.37;97201.66;1669185;83;27615;-89
2021/08/20 11:05:58;;;;;;;3.98;3.33;;;;;;;27.92;43.86;97201.16;1704887;83;25410;-89
2021/08/20 11:08:32;;;;;;;5.58;3.10;;;;;;;27.96;43.96;97193.00;1676284;83;25538;-88
2021/08/20 11:11:50;;;;;;;3.83;2.95;;;;;;;27.95;43.00;97195.52;1659931;85;25729;-89
2021/08/20 11:14:35;;;;;;;4.30;2.98;;;;;;;27.87;43.33;97175.56;1661584;83;25678;-89
2021/08/20 11:17:10;;;;;;;4.50;3.47;;;;;;;28.07;44.47;97180.98;1674025;84;27421;-90
2021/08/20 11:19:56;;;;;;;3.50;3.20;;;;;;;28.15;44.14;97184.30;1662096;85;25648;-91
2021/08/20 11:22:25;;;;;;;3.33;3.02;;;;;;;28.12;43.84;97185.80;1635013;85;25656;-90
2021/08/20 11:25:16;;;;;;;4.53;3.12;;;;;;;27.89;43.76;97187.96;1668406;85;25690;-89
2021/08/20 11:28:05;;;;;;;4.47;3.17;;;;;;;27.65;43.92;97183.50;1642875;85;25611;-90
2021/08/20 11:30:40;;;;;;;4.25;3.20;;;;;;;27.64;44.06;97183.82;1641678;85;26305;-89
2021/08/20 11:33:26;;;;;;;3.37;3.10;;;;;;;27.76;44.43;97178.43;1690791;83;25605;-89
2021/08/20 11:36:18;;;;;;;;;;;;;;;;;;;;;
2021/08/20 11:39:00;;;;;;;7.53;3.52;;;;;;;27.39;44.58;97177.92;1675035;84;25619;-89
2021/08/20 11:41:56;;;;;;;4.42;3.33;;;;;;;27.57;43.47;97180.95;1676264;84;25482;-90
2021/08/20 11:44:25;;;;;;;3.25;2.95;;;;;;;27.66;44.12;97174.58;1656543;85;26316;-91
2021/08/20 11:46:56;;;;;;;3.40;3.10;;;;;;;27.68;43.86;97184.20;1676272;84;26012;-89
2021/08/20 11:49:27;;;;;;;4.22;3.83;;;;;;;27.45;44.14;97165.52;1670333;84;25591;-89